Memorial Square, Georgia
Current Conditions -  °F | °C
As of 11:53 PM on Wednesday 22 Oct 2014 (Local Time) from KPDK Reporting Station
Clear Clear  
Wind Chill: 48°   Ceiling: Unl
Heat Index: 48°   Visibility: 10mi
Dew Point: 41°   Wind: 3mph
Humidity: 77%   Direction: 330°NNW
Pressure: 30.12"   Gusts: NA
Location:  33.7941°N, 84.2001°W
Report Text: KPDK 230353Z AUTO 33003KT 10SM CLR 09/05 A3012 RMK AO2 SLP200 T00890050
Loading
Personal Weather Stations






























Interactive Weather Map
Tropical Storm Tracking
New forecast layout! Learn more

10-Day Weather Forecast

Advertisements
Track Severe Weather on mobile